createdAt,value
2023-09-17T00:01:24.629Z,22.52
2023-09-17T00:03:53.329Z,19.83
2023-09-17T00:06:21.145Z,21.95
2023-09-17T00:08:47.980Z,19.20
2023-09-17T00:11:16.003Z,17.27
2023-09-17T00:13:43.140Z,19.38
2023-09-17T00:16:11.889Z,16.98
2023-09-17T00:18:39.204Z,18.73
2023-09-17T00:21:07.615Z,16.45
2023-09-17T00:23:34.832Z,17.45
2023-09-17T00:26:01.753Z,20.48
2023-09-17T00:28:28.745Z,17.05
2023-09-17T00:30:55.833Z,18.90
2023-09-17T00:33:22.870Z,16.70
2023-09-17T00:35:51.255Z,16.75
2023-09-17T00:38:18.064Z,15.52
2023-09-17T00:40:45.134Z,18.50
2023-09-17T00:43:12.788Z,16.10
2023-09-17T00:45:42.469Z,16.10
2023-09-17T00:48:10.678Z,16.27
2023-09-17T00:50:40.198Z,15.85
2023-09-17T00:53:08.107Z,15.90
2023-09-17T00:55:35.053Z,16.45
2023-09-17T00:58:02.142Z,16.73
2023-09-17T01:00:29.692Z,17.88
2023-09-17T01:02:56.944Z,15.88
2023-09-17T01:05:23.990Z,15.05
2023-09-17T01:07:51.098Z,15.13
2023-09-17T01:10:19.101Z,17.50
2023-09-17T01:12:47.075Z,17.92
2023-09-17T01:15:14.488Z,19.10
2023-09-17T01:17:41.643Z,17.55
2023-09-17T01:20:25.786Z,16.17
2023-09-17T01:22:57.643Z,16.15
2023-09-17T01:25:37.587Z,15.87
2023-09-17T01:28:06.437Z,15.40
2023-09-17T01:30:33.342Z,16.85
2023-09-17T01:33:02.124Z,17.30
2023-09-17T01:35:32.236Z,17.25
2023-09-17T01:38:01.759Z,17.35
2023-09-17T01:40:29.683Z,16.90
2023-09-17T01:42:58.150Z,16.05
2023-09-17T01:45:28.118Z,17.90
2023-09-17T01:47:56.303Z,15.80
2023-09-17T01:50:25.131Z,16.77
2023-09-17T01:52:53.189Z,15.90
2023-09-17T01:55:20.143Z,17.75
2023-09-17T01:57:46.955Z,16.50
2023-09-17T02:00:18.172Z,16.42
2023-09-17T02:02:49.305Z,18.10
2023-09-17T02:05:17.847Z,16.80
2023-09-17T02:07:48.401Z,18.60
2023-09-17T02:10:15.333Z,17.50
2023-09-17T02:12:42.208Z,18.55
2023-09-17T02:15:12.047Z,18.50
2023-09-17T02:17:39.474Z,17.90
2023-09-17T02:20:12.322Z,17.42
2023-09-17T02:22:40.248Z,17.87
2023-09-17T02:25:07.707Z,18.85
2023-09-17T02:27:35.302Z,18.83
2023-09-17T02:30:02.463Z,17.13
2023-09-17T02:32:29.517Z,19.55
2023-09-17T02:34:57.465Z,20.58
2023-09-17T02:37:24.488Z,20.55
2023-09-17T02:39:51.294Z,20.48
2023-09-17T02:42:18.687Z,18.95
2023-09-17T02:44:45.539Z,20.92
2023-09-17T02:47:12.537Z,19.02
2023-09-17T02:49:39.525Z,21.27
2023-09-17T02:52:07.842Z,20.20
2023-09-17T02:54:37.829Z,20.85
2023-09-17T02:57:05.141Z,20.10
2023-09-17T02:59:35.755Z,20.13
2023-09-17T03:02:02.831Z,21.20
2023-09-17T03:04:29.764Z,21.92
2023-09-17T03:06:56.743Z,21.67
2023-09-17T03:09:25.964Z,22.48
2023-09-17T03:11:52.873Z,20.42
2023-09-17T03:14:21.168Z,22.65
2023-09-17T03:16:48.261Z,20.00
2023-09-17T03:19:21.205Z,18.83
2023-09-17T03:21:48.486Z,20.45
2023-09-17T03:24:18.359Z,23.58
2023-09-17T03:26:45.542Z,19.67
2023-09-17T03:29:13.550Z,22.70
2023-09-17T03:31:42.444Z,21.35
2023-09-17T03:34:11.424Z,23.23
2023-09-17T03:36:38.683Z,23.38
2023-09-17T03:39:10.159Z,21.60
2023-09-17T03:41:41.420Z,22.70
2023-09-17T03:44:11.458Z,21.23
2023-09-17T03:46:39.405Z,20.15
2023-09-17T03:49:07.568Z,22.42
2023-09-17T03:51:35.674Z,22.63
2023-09-17T03:54:02.902Z,23.15
2023-09-17T03:56:29.967Z,25.50
2023-09-17T03:58:57.297Z,23.65
2023-09-17T04:01:25.325Z,21.65
2023-09-17T04:03:52.829Z,22.17
2023-09-17T04:06:20.031Z,22.73
2023-09-17T04:08:46.934Z,21.70
2023-09-17T04:11:17.351Z,23.95
2023-09-17T04:13:45.465Z,25.30
2023-09-17T04:16:13.655Z,24.63
2023-09-17T04:18:40.818Z,24.08
2023-09-17T04:21:07.774Z,26.45
2023-09-17T04:23:34.719Z,27.15
2023-09-17T04:26:01.934Z,24.98
2023-09-17T04:28:28.800Z,24.40
2023-09-17T04:30:56.456Z,25.10
2023-09-17T04:33:23.977Z,26.83
2023-09-17T04:35:57.553Z,24.90
2023-09-17T04:40:52.474Z,22.92
2023-09-17T04:43:21.542Z,25.90
2023-09-17T04:45:49.067Z,27.85
2023-09-17T04:48:31.302Z,27.80
2023-09-17T04:50:58.885Z,27.65
2023-09-17T04:53:25.845Z,28.10
2023-09-17T04:55:54.446Z,29.23
2023-09-17T04:58:26.104Z,30.80
2023-09-17T05:00:55.635Z,32.20
2023-09-17T05:03:23.861Z,32.40
2023-09-17T05:05:51.110Z,31.33
2023-09-17T05:08:19.658Z,32.45
2023-09-17T05:10:47.305Z,34.70
2023-09-17T05:13:14.701Z,32.53
2023-09-17T05:15:41.969Z,34.53
2023-09-17T05:18:11.057Z,34.03
2023-09-17T05:20:45.269Z,35.10
2023-09-17T05:23:12.714Z,34.22
2023-09-17T05:25:39.929Z,35.40
2023-09-17T05:28:08.191Z,34.38
2023-09-17T05:30:36.064Z,34.38
2023-09-17T05:33:04.817Z,34.22
2023-09-17T05:35:33.064Z,32.90
2023-09-17T05:38:00.157Z,32.70
2023-09-17T05:40:27.381Z,30.77
2023-09-17T05:42:54.352Z,33.70
2023-09-17T05:45:21.219Z,33.72
2023-09-17T05:47:48.139Z,32.13
2023-09-17T05:50:15.011Z,33.05
2023-09-17T05:52:42.031Z,32.00
2023-09-17T05:55:09.453Z,35.15
2023-09-17T05:57:36.398Z,33.67
2023-09-17T06:00:06.535Z,34.40
2023-09-17T06:02:42.179Z,36.33
2023-09-17T06:05:11.334Z,35.83
2023-09-17T06:07:38.230Z,39.58
2023-09-17T06:10:06.048Z,36.72
2023-09-17T06:12:33.548Z,35.17
2023-09-17T06:15:01.189Z,38.72
2023-09-17T06:17:28.288Z,36.25
2023-09-17T06:19:55.360Z,36.90
2023-09-17T06:22:23.010Z,37.35
2023-09-17T06:24:50.155Z,35.05
2023-09-17T06:27:17.172Z,35.72
2023-09-17T06:29:44.088Z,37.47
2023-09-17T06:32:11.781Z,39.50
2023-09-17T06:34:39.208Z,38.33
2023-09-17T06:37:08.011Z,36.15
2023-09-17T06:39:35.899Z,35.63
2023-09-17T06:42:02.913Z,35.55
2023-09-17T06:44:29.698Z,36.90
2023-09-17T06:46:56.643Z,35.63
2023-09-17T06:49:23.723Z,37.55
2023-09-17T06:51:53.280Z,37.15
2023-09-17T06:54:20.245Z,34.83
2023-09-17T06:56:47.080Z,35.95
2023-09-17T06:59:14.348Z,32.08
2023-09-17T07:01:43.115Z,32.50
2023-09-17T07:04:12.882Z,34.58
2023-09-17T07:06:40.709Z,30.77
2023-09-17T07:09:08.767Z,34.25
2023-09-17T07:11:35.708Z,32.72
2023-09-17T07:14:06.776Z,33.85
2023-09-17T07:16:33.713Z,32.58
2023-09-17T07:19:00.611Z,33.55
2023-09-17T07:21:27.406Z,30.70
2023-09-17T07:23:54.256Z,32.38
2023-09-17T07:26:21.305Z,31.92
2023-09-17T07:28:48.535Z,32.92
2023-09-17T07:31:16.673Z,33.00
2023-09-17T07:33:45.360Z,30.33
2023-09-17T07:36:12.509Z,31.52
2023-09-17T07:38:39.428Z,30.23
2023-09-17T07:41:06.282Z,29.13
2023-09-17T07:43:33.134Z,30.42
2023-09-17T07:45:59.962Z,29.75
2023-09-17T07:48:29.047Z,29.40
2023-09-17T07:51:00.641Z,31.27
2023-09-17T07:53:28.119Z,29.70
2023-09-17T07:55:55.210Z,29.60
2023-09-17T07:58:22.072Z,26.60
2023-09-17T08:00:49.592Z,29.67
2023-09-17T08:03:20.102Z,29.60
2023-09-17T08:05:48.154Z,29.77
2023-09-17T08:08:18.147Z,29.75
2023-09-17T08:10:45.419Z,29.45
2023-09-17T08:13:12.507Z,31.85
2023-09-17T08:15:39.840Z,29.25
2023-09-17T08:18:06.990Z,28.70
2023-09-17T08:20:34.013Z,27.65
2023-09-17T08:23:01.004Z,29.75
2023-09-17T08:25:28.036Z,30.45
2023-09-17T08:27:55.092Z,32.50
2023-09-17T08:30:22.050Z,32.80
2023-09-17T08:32:48.894Z,28.95
2023-09-17T08:35:16.150Z,28.98
2023-09-17T08:37:44.429Z,30.00
2023-09-17T08:40:18.919Z,30.48
2023-09-17T08:42:49.348Z,31.70
2023-09-17T08:45:16.896Z,31.45
2023-09-17T08:47:44.578Z,33.40
2023-09-17T08:50:11.499Z,30.27
2023-09-17T08:52:43.793Z,30.58
2023-09-17T08:55:12.483Z,28.10
2023-09-17T08:57:43.210Z,30.05
2023-09-17T09:00:12.216Z,27.70
2023-09-17T09:02:49.979Z,28.33
2023-09-17T09:05:18.059Z,28.00
2023-09-17T09:07:48.724Z,29.15
2023-09-17T09:10:16.205Z,27.75
2023-09-17T09:12:44.019Z,29.48
2023-09-17T09:15:11.640Z,30.17
2023-09-17T09:17:42.243Z,31.40
2023-09-17T09:20:15.015Z,30.33
2023-09-17T09:22:42.183Z,30.17
2023-09-17T09:25:10.328Z,32.80
2023-09-17T09:27:38.813Z,30.40
2023-09-17T09:30:10.745Z,32.42
2023-09-17T09:32:38.778Z,30.08
2023-09-17T09:35:07.055Z,33.90
2023-09-17T09:37:35.708Z,32.08
2023-09-17T09:40:04.133Z,33.92
2023-09-17T09:42:31.848Z,33.80
2023-09-17T09:44:59.219Z,31.63
2023-09-17T09:47:26.086Z,33.00
2023-09-17T09:49:53.127Z,27.70
2023-09-17T09:52:25.246Z,28.15
2023-09-17T09:54:52.047Z,29.83
2023-09-17T09:57:20.276Z,29.65
2023-09-17T09:59:48.803Z,28.70
2023-09-17T10:02:19.019Z,31.90
2023-09-17T10:04:46.785Z,34.42
2023-09-17T10:07:17.418Z,28.95
2023-09-17T10:09:44.757Z,28.92
2023-09-17T10:12:14.139Z,29.90
2023-09-17T10:14:42.667Z,31.27
2023-09-17T10:17:11.680Z,30.70
2023-09-17T10:19:40.234Z,30.02
2023-09-17T10:22:09.588Z,29.00
2023-09-17T10:24:40.390Z,26.95
2023-09-17T10:27:08.612Z,29.05
2023-09-17T10:29:43.018Z,30.02
2023-09-17T10:32:10.429Z,32.33
2023-09-17T10:34:38.134Z,29.85
2023-09-17T10:37:05.843Z,32.03
2023-09-17T10:39:36.466Z,30.38
2023-09-17T10:42:06.248Z,29.20
2023-09-17T10:44:37.580Z,31.60
2023-09-17T10:47:09.237Z,30.05
2023-09-17T10:49:38.007Z,29.50
2023-09-17T10:52:06.858Z,30.42
2023-09-17T10:54:33.834Z,26.05
2023-09-17T10:57:05.599Z,26.45
2023-09-17T10:59:33.738Z,28.05
2023-09-17T11:02:00.934Z,27.52
2023-09-17T11:04:29.487Z,25.35
2023-09-17T11:06:56.913Z,26.38
2023-09-17T11:09:23.858Z,27.80
2023-09-17T11:11:51.670Z,26.50
2023-09-17T11:14:18.681Z,24.98
2023-09-17T11:16:49.354Z,23.20
2023-09-17T11:19:17.941Z,22.98
2023-09-17T11:21:49.238Z,25.45
2023-09-17T11:24:19.123Z,24.43
2023-09-17T11:26:46.971Z,23.33
2023-09-17T11:29:14.004Z,22.42
2023-09-17T11:31:53.155Z,22.50
2023-09-17T11:34:22.132Z,23.67
2023-09-17T11:36:49.611Z,22.90
2023-09-17T11:39:17.578Z,25.05
2023-09-17T11:41:50.170Z,22.60
2023-09-17T11:44:17.277Z,23.38
2023-09-17T11:46:45.332Z,24.88
2023-09-17T11:49:12.491Z,23.35
2023-09-17T11:51:44.526Z,23.25
2023-09-17T11:54:17.035Z,19.88
2023-09-17T11:56:55.152Z,21.55
2023-09-17T11:59:23.747Z,21.15
2023-09-17T12:01:54.315Z,21.55
2023-09-17T12:04:27.577Z,21.17
2023-09-17T12:06:55.269Z,20.83
2023-09-17T12:10:05.140Z,20.35
2023-09-17T12:12:37.155Z,17.73
2023-09-17T12:15:10.698Z,17.13
2023-09-17T12:17:44.503Z,19.02
2023-09-17T12:21:02.603Z,22.65
2023-09-17T12:24:06.090Z,22.10
2023-09-17T12:27:29.027Z,19.98
2023-09-17T12:29:56.046Z,20.80
2023-09-17T12:32:29.167Z,19.83
2023-09-17T12:34:56.710Z,20.08
2023-09-17T12:37:24.540Z,21.65
2023-09-17T12:39:51.388Z,20.45
2023-09-17T12:42:18.812Z,20.35
2023-09-17T12:44:45.732Z,21.33
2023-09-17T12:47:13.227Z,19.85
2023-09-17T12:49:41.700Z,20.65
2023-09-17T12:52:08.737Z,21.02
2023-09-17T12:54:35.851Z,20.73
2023-09-17T12:57:02.842Z,20.20
2023-09-17T12:59:40.463Z,18.85
2023-09-17T13:02:08.886Z,18.17
2023-09-17T13:04:40.692Z,18.17
2023-09-17T13:07:22.342Z,19.92
2023-09-17T13:09:53.857Z,22.67
2023-09-17T13:12:24.088Z,19.83
2023-09-17T13:14:53.034Z,20.10
2023-09-17T13:17:22.061Z,18.50
2023-09-17T13:19:49.826Z,17.38
2023-09-17T13:22:17.994Z,19.17
2023-09-17T13:24:45.878Z,18.15
2023-09-17T13:27:16.103Z,18.42
2023-09-17T13:29:42.922Z,19.50
2023-09-17T13:32:12.142Z,18.17
2023-09-17T13:34:42.118Z,19.40
2023-09-17T13:37:09.930Z,20.60
2023-09-17T13:39:41.722Z,18.52
2023-09-17T13:42:09.177Z,20.35
2023-09-17T13:44:36.300Z,20.77
2023-09-17T13:47:04.330Z,19.73
2023-09-17T13:49:31.786Z,20.08
2023-09-17T13:51:58.589Z,19.40
2023-09-17T13:54:25.589Z,20.90
2023-09-17T13:56:52.373Z,19.98
2023-09-17T13:59:19.239Z,19.58
2023-09-17T14:01:46.558Z,18.08
2023-09-17T14:04:13.648Z,19.08
2023-09-17T14:06:40.474Z,20.98
2023-09-17T14:09:07.301Z,19.23
2023-09-17T14:11:34.079Z,19.80
2023-09-17T14:14:00.931Z,17.60
2023-09-17T14:16:27.771Z,17.80
2023-09-17T14:18:54.686Z,16.55
2023-09-17T14:21:21.566Z,14.93
2023-09-17T14:23:48.383Z,14.88
2023-09-17T14:26:15.279Z,14.85
2023-09-17T14:28:42.238Z,14.05
2023-09-17T14:31:09.106Z,16.40
2023-09-17T14:33:35.981Z,15.20
2023-09-17T14:36:02.964Z,17.17
2023-09-17T14:38:29.805Z,15.43
2023-09-17T14:40:56.641Z,15.75
2023-09-17T14:43:23.771Z,15.45
2023-09-17T14:45:50.586Z,15.18
2023-09-17T14:48:17.521Z,16.55
2023-09-17T14:50:44.326Z,14.88
2023-09-17T14:53:11.637Z,15.45
2023-09-17T14:55:38.540Z,17.50
2023-09-17T14:58:05.473Z,16.80
2023-09-17T15:00:33.150Z,17.35
2023-09-17T15:03:00.236Z,17.25
2023-09-17T15:05:27.761Z,18.73
2023-09-17T15:07:54.669Z,19.17
2023-09-17T15:10:21.583Z,18.23
2023-09-17T15:12:49.239Z,17.48
2023-09-17T15:15:16.146Z,14.88
2023-09-17T15:17:43.054Z,16.63
2023-09-17T15:20:10.426Z,16.08
2023-09-17T15:22:38.499Z,16.48
2023-09-17T15:25:05.689Z,17.10
2023-09-17T15:27:33.770Z,16.88
2023-09-17T15:30:00.703Z,16.60
2023-09-17T15:32:27.642Z,15.38
2023-09-17T15:34:55.212Z,16.05
2023-09-17T15:37:22.166Z,15.50
2023-09-17T15:39:49.024Z,13.75
2023-09-17T15:42:15.900Z,14.30
2023-09-17T15:44:42.734Z,13.73
2023-09-17T15:47:09.821Z,12.60
2023-09-17T15:49:36.684Z,11.90
2023-09-17T15:52:05.759Z,13.15
2023-09-17T15:54:32.857Z,13.68
2023-09-17T15:57:00.329Z,13.90
2023-09-17T15:59:27.290Z,12.35
2023-09-17T16:01:54.276Z,13.57
2023-09-17T16:04:21.226Z,13.48
2023-09-17T16:06:48.192Z,11.93
2023-09-17T16:09:14.972Z,13.50
2023-09-17T16:11:41.752Z,14.05
2023-09-17T16:14:08.653Z,13.38
2023-09-17T16:16:35.949Z,15.45
2023-09-17T16:19:02.868Z,14.82
2023-09-17T16:21:29.638Z,15.60
2023-09-17T16:23:56.550Z,13.50
2023-09-17T16:26:23.520Z,13.57
2023-09-17T16:28:50.576Z,15.23
2023-09-17T16:31:17.423Z,13.50
2023-09-17T16:33:44.589Z,13.70
2023-09-17T16:36:11.583Z,13.68
2023-09-17T16:38:38.400Z,12.60
2023-09-17T16:41:05.307Z,15.10
2023-09-17T16:43:32.274Z,12.57
2023-09-17T16:45:59.679Z,13.48
2023-09-17T16:48:28.127Z,13.63
2023-09-17T16:50:55.108Z,13.35
2023-09-17T16:53:22.062Z,11.52
2023-09-17T16:55:51.674Z,12.35
2023-09-17T16:58:19.467Z,10.48
2023-09-17T17:00:50.635Z,11.27
2023-09-17T17:03:17.965Z,16.20
2023-09-17T17:05:45.776Z,13.25
2023-09-17T17:08:13.417Z,12.75
2023-09-17T17:10:42.016Z,11.50
2023-09-17T17:13:09.319Z,10.25
2023-09-17T17:15:36.742Z,10.30
2023-09-17T17:18:03.740Z,11.48
2023-09-17T17:20:30.572Z,11.23
2023-09-17T17:22:57.450Z,10.90
2023-09-17T17:25:24.282Z,12.20
2023-09-17T17:27:52.412Z,11.23
2023-09-17T17:30:19.346Z,10.68
2023-09-17T17:32:46.626Z,11.20
2023-09-17T17:35:14.993Z,10.05
2023-09-17T17:37:42.201Z,11.93
2023-09-17T17:40:09.673Z,10.73
2023-09-17T17:42:36.797Z,12.70
2023-09-17T17:45:04.101Z,11.15
2023-09-17T17:47:33.991Z,11.73
2023-09-17T17:50:01.106Z,10.55
2023-09-17T17:52:28.031Z,11.90
2023-09-17T17:54:54.938Z,11.50
2023-09-17T17:57:22.891Z,12.00
2023-09-17T17:59:50.066Z,11.52
2023-09-17T18:02:17.058Z,12.15
2023-09-17T18:04:44.017Z,12.90
2023-09-17T18:07:11.997Z,11.93
2023-09-17T18:09:38.910Z,10.77
2023-09-17T18:12:05.935Z,11.50
2023-09-17T18:14:32.801Z,11.43
2023-09-17T18:16:59.759Z,11.80
2023-09-17T18:19:26.783Z,13.50
2023-09-17T18:21:53.647Z,12.90
2023-09-17T18:24:24.603Z,11.45
2023-09-17T18:26:54.602Z,13.85
2023-09-17T18:29:24.867Z,12.57
2023-09-17T18:31:51.891Z,13.02
2023-09-17T18:34:18.728Z,13.30
2023-09-17T18:36:45.607Z,14.02
2023-09-17T18:39:12.418Z,13.38
2023-09-17T18:41:40.523Z,13.13
2023-09-17T18:44:08.070Z,13.98
2023-09-17T18:46:35.021Z,14.30
2023-09-17T18:49:01.895Z,14.05
2023-09-17T18:51:29.904Z,13.45
2023-09-17T18:53:57.401Z,14.30
2023-09-17T18:56:24.300Z,14.30
2023-09-17T18:58:52.019Z,14.15
2023-09-17T19:01:20.133Z,15.82
2023-09-17T19:03:47.425Z,15.15
2023-09-17T19:06:14.896Z,15.48
2023-09-17T19:08:41.778Z,15.40
2023-09-17T19:11:08.725Z,14.50
2023-09-17T19:13:37.061Z,15.60
2023-09-17T19:16:05.132Z,13.95
2023-09-17T19:18:32.371Z,14.18
2023-09-17T19:21:13.824Z,13.80
2023-09-17T19:23:41.920Z,13.23
2023-09-17T19:26:10.244Z,11.75
2023-09-17T19:28:37.179Z,11.73
2023-09-17T19:31:04.115Z,12.15
2023-09-17T19:33:32.283Z,10.75
2023-09-17T19:36:00.438Z,12.55
2023-09-17T19:38:28.250Z,11.15
2023-09-17T19:40:55.141Z,11.05
2023-09-17T19:43:22.052Z,11.27
2023-09-17T19:45:51.556Z,10.52
2023-09-17T19:48:18.873Z,9.93
2023-09-17T19:50:49.121Z,10.73
2023-09-17T19:53:19.451Z,11.15
2023-09-17T19:55:47.980Z,8.95
2023-09-17T19:58:15.008Z,8.77
2023-09-17T20:00:42.848Z,9.93
2023-09-17T20:03:10.234Z,10.43
2023-09-17T20:05:37.460Z,10.13
2023-09-17T20:08:08.715Z,9.13
2023-09-17T20:10:39.710Z,10.13
2023-09-17T20:13:06.721Z,9.73
2023-09-17T20:15:33.522Z,8.82
2023-09-17T20:18:00.395Z,10.32
2023-09-17T20:20:27.613Z,10.82
2023-09-17T20:22:54.999Z,10.07
2023-09-17T20:25:22.900Z,9.95
2023-09-17T20:28:02.880Z,9.32
2023-09-17T20:30:31.738Z,10.13
2023-09-17T20:32:58.820Z,9.07
2023-09-17T20:35:25.877Z,9.70
2023-09-17T20:37:52.818Z,9.40
2023-09-17T20:40:19.743Z,8.63
2023-09-17T20:42:47.612Z,10.20
2023-09-17T20:45:17.845Z,9.05
2023-09-17T20:47:45.550Z,8.88
2023-09-17T20:50:12.586Z,8.65
2023-09-17T20:52:39.829Z,8.63
2023-09-17T20:55:08.817Z,8.73
2023-09-17T20:57:36.235Z,7.13
2023-09-17T21:00:06.495Z,7.35
2023-09-17T21:02:33.750Z,8.40
2023-09-17T21:05:01.422Z,7.32
2023-09-17T21:07:28.948Z,7.28
2023-09-17T21:09:57.579Z,7.63
2023-09-17T21:12:25.273Z,8.32
2023-09-17T21:14:52.181Z,9.43
2023-09-17T21:17:19.715Z,8.95
2023-09-17T21:19:46.831Z,9.13
2023-09-17T21:22:15.344Z,9.80
2023-09-17T21:24:42.706Z,9.15
2023-09-17T21:27:09.532Z,8.80
2023-09-17T21:29:36.638Z,8.70
2023-09-17T21:32:04.271Z,8.88
2023-09-17T21:34:31.230Z,8.90
2023-09-17T21:36:58.192Z,9.18
2023-09-17T21:39:29.306Z,9.82
2023-09-17T21:41:57.218Z,10.65
2023-09-17T21:44:24.342Z,10.82
2023-09-17T21:46:53.552Z,11.32
2023-09-17T21:49:20.889Z,10.40
2023-09-17T21:51:47.972Z,10.65
2023-09-17T21:54:14.801Z,10.95
2023-09-17T21:56:41.915Z,9.65
2023-09-17T21:59:09.207Z,10.95
2023-09-17T22:01:36.100Z,11.10
2023-09-17T22:04:04.308Z,10.57
2023-09-17T22:06:31.447Z,11.00
2023-09-17T22:08:58.288Z,10.63
2023-09-17T22:11:25.256Z,10.68
2023-09-17T22:13:52.628Z,10.10
2023-09-17T22:16:19.594Z,10.60
2023-09-17T22:18:46.474Z,10.90
2023-09-17T22:21:13.371Z,8.82
2023-09-17T22:23:40.280Z,9.55
2023-09-17T22:26:07.965Z,9.40
2023-09-17T22:28:37.401Z,9.75
2023-09-17T22:31:15.189Z,9.07
2023-09-17T22:33:44.273Z,10.55
2023-09-17T22:36:11.820Z,10.18
2023-09-17T22:38:44.419Z,8.70
2023-09-17T22:41:25.394Z,8.98
2023-09-17T22:43:59.793Z,9.85
2023-09-17T22:46:32.642Z,9.32
2023-09-17T22:48:59.692Z,10.23
2023-09-17T22:51:30.598Z,10.23
2023-09-17T22:54:00.609Z,9.55
2023-09-17T22:56:28.099Z,9.70
2023-09-17T22:58:55.128Z,10.00
2023-09-17T23:01:22.007Z,10.00
2023-09-17T23:03:48.961Z,9.57
2023-09-17T23:06:15.859Z,9.82
2023-09-17T23:08:43.089Z,10.32
2023-09-17T23:11:10.728Z,9.55
2023-09-17T23:13:37.718Z,10.57
2023-09-17T23:16:05.462Z,10.45
2023-09-17T23:18:33.858Z,10.70
2023-09-17T23:21:04.663Z,10.18
2023-09-17T23:23:32.243Z,11.18
2023-09-17T23:26:01.284Z,10.50
2023-09-17T23:28:33.631Z,11.93
2023-09-17T23:33:32.885Z,10.75
2023-09-17T23:36:01.179Z,10.25
2023-09-17T23:38:31.793Z,10.63
2023-09-17T23:40:58.981Z,11.75
2023-09-17T23:43:26.096Z,11.45
2023-09-17T23:45:53.166Z,11.55
2023-09-17T23:48:20.080Z,11.68
2023-09-17T23:50:47.012Z,11.23
2023-09-17T23:53:14.197Z,11.50
2023-09-17T23:55:41.358Z,12.60
2023-09-17T23:58:08.274Z,12.45
